Aviation Digital Data Service (ADDS)

Output produced by METARs form (1427 UTC 23 November 2014)
found at http://www.aviationweather.gov/adds/metars/
 
KDEN 231346Z 2314/2418 08010KT P6SM VCSH FEW020 BKN070 
     TEMPO 2314/2315 -SN 
     FM231600 02014G22KT P6SM SCT050 SCT070 BKN100 
     FM231800 35020G34KT P6SM VCSH SCT060 BKN100 
     FM240100 30013KT P6SM SCT090 BKN120 
     FM240600 27010KT P6SM SCT100 BKN150 
     FM240900 25011KT P6SM SCT100 BKN150 
     FM241600 33014G22KT P6SM SCT080 BKN120